createdAt,value
2023-03-27T00:00:26.816Z,7.96
2023-03-27T00:01:11.662Z,7.97
2023-03-27T00:01:53.478Z,7.73
2023-03-27T00:02:35.212Z,7.96
2023-03-27T00:03:17.478Z,7.96
2023-03-27T00:04:00.371Z,7.92
2023-03-27T00:04:42.378Z,7.89
2023-03-27T00:05:24.221Z,7.57
2023-03-27T00:06:09.330Z,7.86
2023-03-27T00:06:50.897Z,7.81
2023-03-27T00:07:35.955Z,7.80
2023-03-27T00:08:17.775Z,7.83
2023-03-27T00:08:59.382Z,7.76
2023-03-27T00:09:44.188Z,7.79
2023-03-27T00:10:26.480Z,7.82
2023-03-27T00:11:08.396Z,7.83
2023-03-27T00:11:50.239Z,7.79
2023-03-27T00:12:31.813Z,7.80
2023-03-27T00:13:13.535Z,7.78
2023-03-27T00:13:55.127Z,7.80
2023-03-27T00:14:36.742Z,7.80
2023-03-27T00:15:18.501Z,7.73
2023-03-27T00:16:00.207Z,7.74
2023-03-27T00:16:42.060Z,7.72
2023-03-27T00:17:24.170Z,7.79
2023-03-27T00:18:05.787Z,7.50
2023-03-27T00:18:47.460Z,7.76
2023-03-27T00:19:29.071Z,7.79
2023-03-27T00:20:11.077Z,7.70
2023-03-27T00:20:53.104Z,7.77
2023-03-27T00:21:35.345Z,7.76
2023-03-27T00:22:17.030Z,7.76
2023-03-27T00:22:58.616Z,7.74
2023-03-27T00:23:40.615Z,7.73
2023-03-27T00:24:22.302Z,7.69
2023-03-27T00:25:05.085Z,7.60
2023-03-27T00:25:50.747Z,7.65
2023-03-27T00:26:32.420Z,7.73
2023-03-27T00:27:14.461Z,7.69
2023-03-27T00:27:58.423Z,7.73
2023-03-27T00:28:40.083Z,7.65
2023-03-27T00:29:21.745Z,7.68
2023-03-27T00:30:05.016Z,7.40
2023-03-27T00:30:48.434Z,7.76
2023-03-27T00:31:30.285Z,7.76
2023-03-27T00:32:11.928Z,7.71
2023-03-27T00:32:55.398Z,7.71
2023-03-27T00:33:37.530Z,7.62
2023-03-27T00:34:19.386Z,7.62
2023-03-27T00:35:01.733Z,7.66
2023-03-27T00:35:47.779Z,7.75
2023-03-27T00:36:29.410Z,7.76
2023-03-27T00:37:11.678Z,7.76
2023-03-27T00:37:53.784Z,7.78
2023-03-27T00:38:36.652Z,7.78
2023-03-27T00:39:19.188Z,7.67
2023-03-27T00:40:01.848Z,7.68
2023-03-27T00:40:44.196Z,7.68
2023-03-27T00:41:25.976Z,7.79
2023-03-27T00:42:13.232Z,7.78
2023-03-27T00:42:57.728Z,7.74
2023-03-27T00:43:44.703Z,7.70
2023-03-27T00:44:34.214Z,7.55
2023-03-27T00:45:21.686Z,7.64
2023-03-27T00:46:15.411Z,7.60
2023-03-27T00:46:57.614Z,7.56
2023-03-27T00:47:39.610Z,7.53
2023-03-27T00:48:22.295Z,7.45
2023-03-27T00:49:09.704Z,7.27
2023-03-27T00:49:52.530Z,7.41
2023-03-27T00:50:41.466Z,7.36
2023-03-27T00:51:26.520Z,7.34
2023-03-27T00:52:08.537Z,7.37
2023-03-27T00:52:56.277Z,7.36
2023-03-27T00:53:38.503Z,7.33
2023-03-27T00:54:26.671Z,7.29
2023-03-27T00:55:14.546Z,7.34
2023-03-27T00:56:01.157Z,7.36
2023-03-27T00:56:45.570Z,7.35
2023-03-27T00:57:27.730Z,7.34
2023-03-27T00:58:19.182Z,7.24
2023-03-27T00:59:09.114Z,7.19
2023-03-27T00:59:54.110Z,7.05
2023-03-27T01:00:36.011Z,7.08
2023-03-27T01:01:20.028Z,7.22
2023-03-27T01:02:04.119Z,6.99
2023-03-27T01:02:49.781Z,7.02
2023-03-27T01:03:32.864Z,7.18
2023-03-27T01:04:14.613Z,7.13
2023-03-27T01:04:57.233Z,7.04
2023-03-27T01:05:38.897Z,7.00
2023-03-27T01:06:21.731Z,7.11
2023-03-27T01:07:05.489Z,7.08
2023-03-27T01:08:00.553Z,7.07
2023-03-27T01:08:45.351Z,7.07
2023-03-27T01:09:27.848Z,7.07
2023-03-27T01:10:11.027Z,7.08
2023-03-27T01:11:01.685Z,7.07
2023-03-27T01:11:55.669Z,7.12
2023-03-27T01:13:09.230Z,7.12
2023-03-27T01:14:01.665Z,6.99
2023-03-27T01:15:04.541Z,7.09
2023-03-27T01:16:07.061Z,7.00
2023-03-27T01:17:11.642Z,7.07
2023-03-27T01:17:59.304Z,7.03
2023-03-27T01:19:21.720Z,6.91
2023-03-27T01:20:33.339Z,6.96
2023-03-27T01:21:32.941Z,6.95
2023-03-27T01:22:33.624Z,6.93
2023-03-27T01:23:59.488Z,6.90
2023-03-27T01:25:25.853Z,6.88
2023-03-27T01:26:36.055Z,6.88
2023-03-27T01:27:42.673Z,6.87
2023-03-27T01:28:59.421Z,6.80
2023-03-27T01:29:58.101Z,6.74
2023-03-27T01:30:50.572Z,6.38
2023-03-27T01:32:00.124Z,6.74
2023-03-27T01:33:32.388Z,6.72
2023-03-27T01:34:28.593Z,6.52
2023-03-27T01:35:28.543Z,6.73
2023-03-27T01:36:39.712Z,6.71
2023-03-27T01:37:57.859Z,6.77
2023-03-27T01:39:05.245Z,6.81
2023-03-27T01:40:18.771Z,6.83
2023-03-27T01:41:08.981Z,6.77
2023-03-27T01:41:53.336Z,6.78
2023-03-27T01:42:49.323Z,6.77
2023-03-27T01:43:40.085Z,6.78
2023-03-27T01:44:47.705Z,6.83
2023-03-27T01:45:39.960Z,6.81
2023-03-27T01:46:24.234Z,6.66
2023-03-27T01:47:26.117Z,6.88
2023-03-27T01:48:16.858Z,6.87
2023-03-27T01:49:10.373Z,6.83
2023-03-27T01:50:00.540Z,6.69
2023-03-27T01:50:49.957Z,6.75
2023-03-27T01:51:38.401Z,6.66
2023-03-27T01:52:26.076Z,6.55
2023-03-27T01:53:15.345Z,6.46
2023-03-27T01:54:09.516Z,6.51
2023-03-27T01:54:58.333Z,6.48
2023-03-27T01:55:45.785Z,5.99
2023-03-27T01:56:37.246Z,6.45
2023-03-27T01:57:34.282Z,6.38
2023-03-27T01:58:37.664Z,6.35
2023-03-27T01:59:23.850Z,6.35
2023-03-27T02:00:19.427Z,6.30
2023-03-27T02:01:02.890Z,6.26
2023-03-27T02:01:53.387Z,6.19
2023-03-27T02:02:36.212Z,6.16
2023-03-27T02:03:22.773Z,6.18
2023-03-27T02:04:15.456Z,6.17
2023-03-27T02:05:07.518Z,6.18
2023-03-27T02:06:00.896Z,6.15
2023-03-27T02:06:51.865Z,6.12
2023-03-27T02:07:39.141Z,6.10
2023-03-27T02:08:50.812Z,6.08
2023-03-27T02:09:39.368Z,6.03
2023-03-27T02:10:26.455Z,6.08
2023-03-27T02:11:08.320Z,6.10
2023-03-27T02:12:12.460Z,6.08
2023-03-27T02:13:00.164Z,6.09
2023-03-27T02:13:59.319Z,6.14
2023-03-27T02:14:57.606Z,6.05
2023-03-27T02:16:01.595Z,6.03
2023-03-27T02:16:48.673Z,6.02
2023-03-27T02:17:34.225Z,6.01
2023-03-27T02:18:24.369Z,5.86
2023-03-27T02:19:13.685Z,5.94
2023-03-27T02:20:00.718Z,5.81
2023-03-27T02:20:42.461Z,5.94
2023-03-27T02:21:24.682Z,5.97
2023-03-27T02:22:07.614Z,5.95
2023-03-27T02:23:02.269Z,5.95
2023-03-27T02:23:44.755Z,5.98
2023-03-27T02:24:27.847Z,5.98
2023-03-27T02:25:28.296Z,5.95
2023-03-27T02:26:12.537Z,5.95
2023-03-27T02:27:04.288Z,5.93
2023-03-27T02:27:50.229Z,5.86
2023-03-27T02:28:41.409Z,5.85
2023-03-27T02:29:39.265Z,5.72
2023-03-27T02:30:34.815Z,5.80
2023-03-27T02:31:33.783Z,5.72
2023-03-27T02:32:42.267Z,5.67
2023-03-27T02:33:33.655Z,5.65
2023-03-27T02:34:54.121Z,5.62
2023-03-27T02:36:00.457Z,5.58
2023-03-27T02:37:25.150Z,5.56
2023-03-27T02:38:46.553Z,5.23
2023-03-27T02:39:34.977Z,5.57
2023-03-27T02:40:41.429Z,5.62
2023-03-27T02:42:17.413Z,5.62
2023-03-27T02:43:32.896Z,5.62
2023-03-27T02:44:20.982Z,5.67
2023-03-27T02:45:21.771Z,5.63
2023-03-27T02:46:17.680Z,5.42
2023-03-27T02:47:07.392Z,5.71
2023-03-27T02:48:09.919Z,5.75
2023-03-27T02:48:57.013Z,5.61
2023-03-27T02:49:46.645Z,5.63
2023-03-27T02:50:34.200Z,5.66
2023-03-27T02:51:43.215Z,5.65
2023-03-27T02:52:39.100Z,5.65
2023-03-27T02:53:24.407Z,5.69
2023-03-27T02:54:11.822Z,5.55
2023-03-27T02:55:06.327Z,5.71
2023-03-27T02:55:54.266Z,5.73
2023-03-27T02:56:44.652Z,5.75
2023-03-27T02:57:38.930Z,5.74
2023-03-27T02:58:47.307Z,5.68
2023-03-27T02:59:54.784Z,5.75
2023-03-27T03:00:41.909Z,5.72
2023-03-27T03:01:38.985Z,5.76
2023-03-27T03:02:39.911Z,5.71
2023-03-27T03:03:37.442Z,5.77
2023-03-27T03:04:33.059Z,5.68
2023-03-27T03:05:23.718Z,5.72
2023-03-27T03:06:06.925Z,5.68
2023-03-27T03:06:50.387Z,5.66
2023-03-27T03:07:34.588Z,5.63
2023-03-27T03:08:16.213Z,5.62
2023-03-27T03:09:04.618Z,5.51
2023-03-27T03:09:46.267Z,5.44
2023-03-27T03:10:28.058Z,5.46
2023-03-27T03:11:12.291Z,5.46
2023-03-27T03:11:54.540Z,5.40
2023-03-27T03:12:36.672Z,5.43
2023-03-27T03:13:18.489Z,5.43
2023-03-27T03:14:01.085Z,5.43
2023-03-27T03:14:46.586Z,5.47
2023-03-27T03:15:29.101Z,5.48
2023-03-27T03:16:11.067Z,5.45
2023-03-27T03:16:52.943Z,5.51
2023-03-27T03:17:37.006Z,5.50
2023-03-27T03:18:18.948Z,5.42
2023-03-27T03:19:01.183Z,5.51
2023-03-27T03:19:42.944Z,5.56
2023-03-27T03:20:24.576Z,5.21
2023-03-27T03:21:06.196Z,5.42
2023-03-27T03:21:49.476Z,4.63
2023-03-27T03:22:31.943Z,5.41
2023-03-27T03:23:13.887Z,5.37
2023-03-27T03:23:57.858Z,5.35
2023-03-27T03:24:42.365Z,5.34
2023-03-27T03:25:25.785Z,5.17
2023-03-27T03:26:08.093Z,5.27
2023-03-27T03:26:59.972Z,5.31
2023-03-27T03:27:41.551Z,5.31
2023-03-27T03:28:27.274Z,5.25
2023-03-27T03:29:10.437Z,5.20
2023-03-27T03:29:56.842Z,5.24
2023-03-27T03:30:42.952Z,5.26
2023-03-27T03:31:27.256Z,5.13
2023-03-27T03:32:10.756Z,5.30
2023-03-27T03:32:54.932Z,5.17
2023-03-27T03:33:37.449Z,5.28
2023-03-27T03:34:19.181Z,5.25
2023-03-27T03:35:01.602Z,5.19
2023-03-27T03:35:50.300Z,5.27
2023-03-27T03:36:50.476Z,5.04
2023-03-27T03:37:38.804Z,5.13
2023-03-27T03:38:26.448Z,5.05
2023-03-27T03:39:09.568Z,5.07
2023-03-27T03:39:52.064Z,5.13
2023-03-27T03:40:33.953Z,5.13
2023-03-27T03:41:15.658Z,5.09
2023-03-27T03:41:57.235Z,5.19
2023-03-27T03:42:48.355Z,5.21
2023-03-27T03:43:31.849Z,5.25
2023-03-27T03:44:14.135Z,5.29
2023-03-27T03:44:55.777Z,5.27
2023-03-27T03:45:37.839Z,5.28
2023-03-27T03:46:19.538Z,5.38
2023-03-27T03:47:01.193Z,5.39
2023-03-27T03:47:44.308Z,5.40
2023-03-27T03:48:26.588Z,5.37
2023-03-27T03:49:08.460Z,5.36
2023-03-27T03:49:50.324Z,5.37
2023-03-27T03:50:32.990Z,4.89
2023-03-27T03:51:14.602Z,5.29
2023-03-27T03:52:03.895Z,5.23
2023-03-27T03:52:47.106Z,5.23
2023-03-27T03:53:28.799Z,5.20
2023-03-27T03:54:11.013Z,5.17
2023-03-27T03:54:56.427Z,5.18
2023-03-27T03:55:38.421Z,4.99
2023-03-27T03:56:20.251Z,5.04
2023-03-27T03:57:04.945Z,4.98
2023-03-27T03:57:48.360Z,4.82
2023-03-27T03:58:38.049Z,4.80
2023-03-27T03:59:21.309Z,4.83
2023-03-27T04:00:38.045Z,4.81
2023-03-27T04:01:22.952Z,4.91
2023-03-27T04:02:12.131Z,4.87
2023-03-27T04:02:54.795Z,4.78
2023-03-27T04:03:37.780Z,4.82
2023-03-27T04:04:19.617Z,4.76
2023-03-27T04:05:13.432Z,4.68
2023-03-27T04:05:55.544Z,4.73
2023-03-27T04:06:37.784Z,4.75
2023-03-27T04:07:21.738Z,4.70
2023-03-27T04:08:08.404Z,4.60
2023-03-27T04:08:50.165Z,4.75
2023-03-27T04:09:54.896Z,4.52
2023-03-27T04:10:41.562Z,4.66
2023-03-27T04:11:46.955Z,4.67
2023-03-27T04:12:33.752Z,4.75
2023-03-27T04:13:16.844Z,4.70
2023-03-27T04:14:11.369Z,4.72
2023-03-27T04:14:57.104Z,4.62
2023-03-27T04:16:14.489Z,4.65
2023-03-27T04:17:01.781Z,4.58
2023-03-27T04:17:44.381Z,4.61
2023-03-27T04:18:32.622Z,4.57
2023-03-27T04:19:18.104Z,4.56
2023-03-27T04:20:02.230Z,4.55
2023-03-27T04:20:49.795Z,4.51
2023-03-27T04:21:33.117Z,4.48
2023-03-27T04:22:17.261Z,4.52
2023-03-27T04:23:02.143Z,4.53
2023-03-27T04:23:45.994Z,4.53
2023-03-27T04:24:32.775Z,4.44
2023-03-27T04:25:17.305Z,4.47
2023-03-27T04:26:01.974Z,4.42
2023-03-27T04:27:01.939Z,4.39
2023-03-27T04:27:53.733Z,4.32
2023-03-27T04:28:39.879Z,3.98
2023-03-27T04:29:43.415Z,4.27
2023-03-27T04:30:44.702Z,4.32
2023-03-27T04:31:46.535Z,4.30
2023-03-27T04:32:52.850Z,4.31
2023-03-27T04:33:53.126Z,4.32
2023-03-27T04:35:00.845Z,4.33
2023-03-27T04:36:05.306Z,4.33
2023-03-27T04:36:58.378Z,4.33
2023-03-27T04:37:41.590Z,4.22
2023-03-27T04:38:41.649Z,4.21
2023-03-27T04:39:23.324Z,4.16
2023-03-27T04:40:06.803Z,4.22
2023-03-27T04:40:49.257Z,4.16
2023-03-27T04:41:32.530Z,4.26
2023-03-27T04:42:14.490Z,4.27
2023-03-27T04:42:56.464Z,4.32
2023-03-27T04:43:40.046Z,4.31
2023-03-27T04:44:21.814Z,4.40
2023-03-27T04:45:04.159Z,4.38
2023-03-27T04:45:48.668Z,4.40
2023-03-27T04:46:31.856Z,4.28
2023-03-27T04:47:20.568Z,4.36
2023-03-27T04:48:05.953Z,4.24
2023-03-27T04:48:48.031Z,4.28
2023-03-27T04:49:40.371Z,4.31
2023-03-27T04:50:32.352Z,4.33
2023-03-27T04:51:14.185Z,4.31
2023-03-27T04:51:57.258Z,4.24
2023-03-27T04:52:42.738Z,4.17
2023-03-27T04:53:30.008Z,4.22
2023-03-27T04:54:11.874Z,4.13
2023-03-27T04:54:58.791Z,4.12
2023-03-27T04:55:41.836Z,4.07
2023-03-27T04:56:24.919Z,4.11
2023-03-27T04:57:09.882Z,4.10
2023-03-27T04:57:51.579Z,4.08
2023-03-27T04:58:36.736Z,3.97
2023-03-27T04:59:23.390Z,4.05
2023-03-27T05:00:28.200Z,4.13
2023-03-27T05:01:30.248Z,4.08
2023-03-27T05:02:12.874Z,4.11
2023-03-27T05:03:03.458Z,4.11
2023-03-27T05:03:56.902Z,4.12
2023-03-27T05:05:14.548Z,4.11
2023-03-27T05:05:56.270Z,4.24
2023-03-27T05:06:39.931Z,4.33
2023-03-27T05:07:26.534Z,4.35
2023-03-27T05:08:08.222Z,4.34
2023-03-27T05:08:50.289Z,4.29
2023-03-27T05:09:40.074Z,3.96
2023-03-27T05:10:23.406Z,4.19
2023-03-27T05:11:07.696Z,4.16
2023-03-27T05:11:56.331Z,4.12
2023-03-27T05:12:46.101Z,4.04
2023-03-27T05:13:29.673Z,4.05
2023-03-27T05:14:11.497Z,4.01
2023-03-27T05:14:55.778Z,3.80
2023-03-27T05:15:53.171Z,3.79
2023-03-27T05:16:37.440Z,3.83
2023-03-27T05:17:21.175Z,3.81
2023-03-27T05:18:02.890Z,2.91
2023-03-27T05:18:46.295Z,3.70
2023-03-27T05:19:27.988Z,3.68
2023-03-27T05:20:17.092Z,3.66
2023-03-27T05:20:59.345Z,3.67
2023-03-27T05:21:41.066Z,3.70
2023-03-27T05:22:24.887Z,3.76
2023-03-27T05:23:15.044Z,3.78
2023-03-27T05:23:56.696Z,3.69
2023-03-27T05:24:39.867Z,3.77
2023-03-27T05:25:22.563Z,3.74
2023-03-27T05:26:05.033Z,3.67
2023-03-27T05:27:10.190Z,3.69
2023-03-27T05:27:56.159Z,3.59
2023-03-27T05:28:40.998Z,3.71
2023-03-27T05:29:22.636Z,3.71
2023-03-27T05:30:18.297Z,3.63
2023-03-27T05:31:01.428Z,3.69
2023-03-27T05:31:46.774Z,3.68
2023-03-27T05:33:00.795Z,3.45
2023-03-27T05:33:44.833Z,3.56
2023-03-27T05:34:27.023Z,3.58
2023-03-27T05:35:11.198Z,3.49
2023-03-27T05:35:57.478Z,3.57
2023-03-27T05:36:40.642Z,3.55
2023-03-27T05:37:22.644Z,3.52
2023-03-27T05:38:28.173Z,3.49
2023-03-27T05:39:27.068Z,3.42
2023-03-27T05:40:09.152Z,3.30
2023-03-27T05:40:52.277Z,3.21
2023-03-27T05:41:35.191Z,3.35
2023-03-27T05:42:18.369Z,3.35
2023-03-27T05:43:00.888Z,3.32
2023-03-27T05:43:45.253Z,3.21
2023-03-27T05:44:28.710Z,3.21
2023-03-27T05:45:11.717Z,3.03
2023-03-27T05:45:55.401Z,3.02
2023-03-27T05:46:37.235Z,3.24
2023-03-27T05:47:27.029Z,3.19
2023-03-27T05:48:09.494Z,3.22
2023-03-27T05:48:55.917Z,3.18
2023-03-27T05:49:39.128Z,3.15
2023-03-27T05:50:29.831Z,3.24
2023-03-27T05:51:13.590Z,3.22
2023-03-27T05:51:55.251Z,3.19
2023-03-27T05:52:37.525Z,3.15
2023-03-27T05:53:19.465Z,3.20
2023-03-27T05:54:19.594Z,3.19
2023-03-27T05:55:08.236Z,3.09
2023-03-27T05:56:03.179Z,3.12
2023-03-27T05:56:52.101Z,3.01
2023-03-27T05:57:37.613Z,3.15
2023-03-27T05:58:19.233Z,3.13
2023-03-27T05:59:02.231Z,3.08
2023-03-27T05:59:45.787Z,2.85
2023-03-27T06:00:38.341Z,3.12
2023-03-27T06:01:20.820Z,3.14
2023-03-27T06:02:02.562Z,3.09
2023-03-27T06:02:59.009Z,3.14
2023-03-27T06:03:56.107Z,3.23
2023-03-27T06:04:54.198Z,3.18
2023-03-27T06:05:50.796Z,3.11
2023-03-27T06:06:33.095Z,3.21
2023-03-27T06:07:14.877Z,3.22
2023-03-27T06:08:00.180Z,3.15
2023-03-27T06:08:42.144Z,3.23
2023-03-27T06:09:24.066Z,3.13
2023-03-27T06:10:30.141Z,3.23
2023-03-27T06:11:23.854Z,3.22
2023-03-27T06:12:05.945Z,3.17
2023-03-27T06:13:03.806Z,3.33
2023-03-27T06:13:51.596Z,3.30
2023-03-27T06:14:38.457Z,3.11
2023-03-27T06:15:39.018Z,3.37
2023-03-27T06:16:31.367Z,3.37
2023-03-27T06:17:26.546Z,3.37
2023-03-27T06:18:14.152Z,3.36
2023-03-27T06:18:56.183Z,3.38
2023-03-27T06:19:38.268Z,3.38
2023-03-27T06:20:21.337Z,3.29
2023-03-27T06:21:07.305Z,2.99
2023-03-27T06:21:48.934Z,2.89
2023-03-27T06:22:30.615Z,3.33
2023-03-27T06:23:12.965Z,3.29
2023-03-27T06:23:56.280Z,3.30
2023-03-27T06:24:37.917Z,3.29
2023-03-27T06:25:20.277Z,3.38
2023-03-27T06:26:02.037Z,3.38
2023-03-27T06:26:45.331Z,3.38
2023-03-27T06:27:28.292Z,3.37
2023-03-27T06:28:11.049Z,3.37
2023-03-27T06:28:58.946Z,3.39
2023-03-27T06:29:42.952Z,3.20
2023-03-27T06:30:25.903Z,3.45
2023-03-27T06:31:27.127Z,3.23
2023-03-27T06:32:32.272Z,3.60
2023-03-27T06:33:15.167Z,3.61
2023-03-27T06:33:58.175Z,3.57
2023-03-27T06:35:08.185Z,3.85
2023-03-27T06:36:19.491Z,4.00
2023-03-27T06:37:03.575Z,4.04
2023-03-27T06:37:51.821Z,4.06
2023-03-27T06:38:37.137Z,4.24
2023-03-27T06:39:19.715Z,4.28
2023-03-27T06:40:09.382Z,4.43
2023-03-27T06:40:52.676Z,4.37
2023-03-27T06:41:34.442Z,4.55
2023-03-27T06:42:27.297Z,4.57
2023-03-27T06:43:34.060Z,4.69
2023-03-27T06:44:24.092Z,4.72
2023-03-27T06:45:27.350Z,4.76
2023-03-27T06:46:42.732Z,4.86
2023-03-27T06:47:44.764Z,4.85
2023-03-27T06:48:51.324Z,4.97
2023-03-27T06:49:33.917Z,4.96
2023-03-27T06:50:26.045Z,4.86
2023-03-27T06:51:12.039Z,4.98
2023-03-27T06:51:53.789Z,4.97
2023-03-27T06:52:37.144Z,4.81
2023-03-27T06:53:36.684Z,4.95
2023-03-27T06:54:20.705Z,4.80
2023-03-27T06:55:07.352Z,4.87
2023-03-27T06:56:02.824Z,4.91
2023-03-27T06:57:00.789Z,4.75
2023-03-27T06:57:49.816Z,4.94
2023-03-27T06:58:33.648Z,4.95
2023-03-27T06:59:15.617Z,4.96
2023-03-27T07:00:00.267Z,4.99
2023-03-27T07:01:06.067Z,4.96
2023-03-27T07:02:11.094Z,4.85
2023-03-27T07:03:11.925Z,5.01
2023-03-27T07:04:16.718Z,5.01
2023-03-27T07:05:36.789Z,5.00
2023-03-27T07:06:19.368Z,4.97
2023-03-27T07:07:06.826Z,5.03
2023-03-27T07:07:54.064Z,4.99
2023-03-27T07:08:40.645Z,4.99
2023-03-27T07:09:22.740Z,5.01
2023-03-27T07:10:14.375Z,5.07
2023-03-27T07:11:10.872Z,5.11
2023-03-27T07:11:57.254Z,5.17
2023-03-27T07:12:38.995Z,5.18
2023-03-27T07:13:20.891Z,5.15
2023-03-27T07:14:02.611Z,5.30
2023-03-27T07:14:45.386Z,5.33
2023-03-27T07:15:27.206Z,5.20
2023-03-27T07:16:12.353Z,5.38
2023-03-27T07:16:54.169Z,5.34
2023-03-27T07:17:48.602Z,5.41
2023-03-27T07:18:32.808Z,5.31
2023-03-27T07:19:14.431Z,5.32
2023-03-27T07:19:59.921Z,5.32
2023-03-27T07:20:45.397Z,5.17
2023-03-27T07:21:31.016Z,5.21
2023-03-27T07:22:15.249Z,5.03
2023-03-27T07:23:01.635Z,5.22
2023-03-27T07:24:03.682Z,5.19
2023-03-27T07:24:47.602Z,5.16
2023-03-27T07:25:36.862Z,5.13
2023-03-27T07:26:20.399Z,5.09
2023-03-27T07:27:14.708Z,5.07
2023-03-27T07:28:00.400Z,5.01
2023-03-27T07:28:44.497Z,4.85
2023-03-27T07:29:27.333Z,5.01
2023-03-27T07:30:13.212Z,4.86
2023-03-27T07:30:56.488Z,5.13
2023-03-27T07:32:36.290Z,5.32
2023-03-27T07:33:19.282Z,5.56
2023-03-27T07:34:01.618Z,5.65
2023-03-27T07:35:06.591Z,5.68
2023-03-27T07:36:11.452Z,5.67
2023-03-27T07:37:01.859Z,5.64
2023-03-27T07:37:44.707Z,5.81
2023-03-27T07:38:46.703Z,5.80
2023-03-27T07:39:39.694Z,5.77
2023-03-27T07:40:26.604Z,5.85
2023-03-27T07:41:32.173Z,5.80
2023-03-27T07:42:14.021Z,5.87
2023-03-27T07:43:16.471Z,5.93
2023-03-27T07:43:59.207Z,6.04
2023-03-27T07:44:45.224Z,6.34
2023-03-27T07:45:26.958Z,6.36
2023-03-27T07:46:12.267Z,6.33
2023-03-27T07:46:54.946Z,6.17
2023-03-27T07:47:36.646Z,6.17
2023-03-27T07:48:18.855Z,6.08
2023-03-27T07:49:01.096Z,6.13
2023-03-27T07:49:43.114Z,6.21
2023-03-27T07:50:27.673Z,6.19
2023-03-27T07:51:13.854Z,5.64
2023-03-27T07:51:56.384Z,6.01
2023-03-27T07:52:40.559Z,6.08
2023-03-27T07:53:33.732Z,6.09
2023-03-27T07:54:24.513Z,6.09
2023-03-27T07:55:08.507Z,6.05
2023-03-27T07:55:58.943Z,6.21
2023-03-27T07:56:41.140Z,6.41
2023-03-27T07:57:59.856Z,6.82
2023-03-27T07:58:45.018Z,6.97
2023-03-27T07:59:32.361Z,7.14
2023-03-27T08:00:22.819Z,6.95
2023-03-27T08:01:16.290Z,7.49
2023-03-27T08:01:57.904Z,7.64
2023-03-27T08:02:43.297Z,7.74
2023-03-27T08:03:26.278Z,7.84
2023-03-27T08:04:10.101Z,7.85
2023-03-27T08:04:55.999Z,7.95
2023-03-27T08:05:38.359Z,8.02
2023-03-27T08:06:26.042Z,7.99
2023-03-27T08:07:08.446Z,8.03
2023-03-27T08:07:51.700Z,8.11
2023-03-27T08:08:51.548Z,8.20
2023-03-27T08:09:33.423Z,8.28
2023-03-27T08:10:16.067Z,8.47
2023-03-27T08:11:23.224Z,8.53
2023-03-27T08:12:12.114Z,8.45
2023-03-27T08:12:57.566Z,8.49
2023-03-27T08:13:39.778Z,8.62
2023-03-27T08:14:22.422Z,8.79
2023-03-27T08:15:06.574Z,8.38
2023-03-27T08:15:48.496Z,8.50
2023-03-27T08:16:37.026Z,8.51
2023-03-27T08:17:20.039Z,8.84
2023-03-27T08:18:04.362Z,9.10
2023-03-27T08:18:46.862Z,9.31
2023-03-27T08:19:29.086Z,9.39
2023-03-27T08:20:15.161Z,9.64
2023-03-27T08:21:03.709Z,9.75
2023-03-27T08:21:45.903Z,9.48
2023-03-27T08:22:28.227Z,9.63
2023-03-27T08:23:28.917Z,9.78
2023-03-27T08:24:19.361Z,9.95
2023-03-27T08:25:23.021Z,9.90
2023-03-27T08:26:05.529Z,9.89
2023-03-27T08:26:53.489Z,9.86
2023-03-27T08:27:35.132Z,9.54
2023-03-27T08:28:17.130Z,9.35
2023-03-27T08:28:59.456Z,9.67
2023-03-27T08:29:44.824Z,9.84
2023-03-27T08:30:26.607Z,9.57
2023-03-27T08:31:16.180Z,10.04
2023-03-27T08:31:59.351Z,10.01
2023-03-27T08:32:42.203Z,9.78
2023-03-27T08:33:27.590Z,10.04
2023-03-27T08:34:09.320Z,10.16
2023-03-27T08:34:58.988Z,10.32
2023-03-27T08:35:40.665Z,10.20
2023-03-27T08:36:23.062Z,10.18
2023-03-27T08:37:08.728Z,10.38
2023-03-27T08:38:26.308Z,10.65
2023-03-27T08:39:30.831Z,10.08
2023-03-27T08:40:21.104Z,9.63
2023-03-27T08:41:03.856Z,9.34
2023-03-27T08:41:55.861Z,9.30
2023-03-27T08:43:12.222Z,9.35
2023-03-27T08:43:56.709Z,9.21
2023-03-27T08:44:38.980Z,9.26
2023-03-27T08:45:36.908Z,9.49
2023-03-27T08:46:23.642Z,9.65
2023-03-27T08:47:26.808Z,9.60
2023-03-27T08:48:21.848Z,9.63
2023-03-27T08:49:15.048Z,10.25
2023-03-27T08:50:05.797Z,10.29
2023-03-27T08:51:03.710Z,10.74
2023-03-27T08:52:01.691Z,11.13
2023-03-27T08:52:46.824Z,11.33
2023-03-27T08:53:58.709Z,11.54
2023-03-27T08:54:48.285Z,11.47
2023-03-27T08:55:42.382Z,11.52
2023-03-27T08:56:32.915Z,11.22
2023-03-27T08:57:23.105Z,10.87
2023-03-27T08:58:19.009Z,10.95
2023-03-27T08:59:01.710Z,10.82
2023-03-27T08:59:43.533Z,10.53
2023-03-27T09:00:36.884Z,10.24
2023-03-27T09:02:12.487Z,9.95
2023-03-27T09:03:18.229Z,10.03
2023-03-27T09:04:09.955Z,10.33
2023-03-27T09:05:06.145Z,10.51
2023-03-27T09:05:59.007Z,10.53
2023-03-27T09:06:51.318Z,10.20
2023-03-27T09:07:45.928Z,9.93
2023-03-27T09:09:07.093Z,10.61
2023-03-27T09:09:59.867Z,10.46
2023-03-27T09:10:56.808Z,10.40
2023-03-27T09:12:22.910Z,10.92
2023-03-27T09:13:18.918Z,11.07
2023-03-27T09:14:04.828Z,11.36
2023-03-27T09:14:51.475Z,11.41
2023-03-27T09:15:40.776Z,11.72
2023-03-27T09:16:25.349Z,11.73
2023-03-27T09:17:17.033Z,11.89
2023-03-27T09:18:38.791Z,12.00
2023-03-27T09:19:38.179Z,12.20
2023-03-27T09:20:30.354Z,12.06
2023-03-27T09:21:21.197Z,12.19
2023-03-27T09:22:10.307Z,12.33
2023-03-27T09:23:42.022Z,12.64
2023-03-27T09:24:43.240Z,12.82
2023-03-27T09:25:50.057Z,12.94
2023-03-27T09:26:57.980Z,13.07
2023-03-27T09:28:19.329Z,13.26
2023-03-27T09:29:24.864Z,13.44
2023-03-27T09:30:23.641Z,13.60
2023-03-27T09:31:24.810Z,13.71
2023-03-27T09:32:14.467Z,13.74
2023-03-27T09:33:01.838Z,13.82
2023-03-27T09:33:44.712Z,13.89
2023-03-27T09:34:33.962Z,14.02
2023-03-27T09:35:18.990Z,14.18
2023-03-27T09:36:02.068Z,14.31
2023-03-27T09:36:44.551Z,14.46
2023-03-27T09:37:27.524Z,14.35
2023-03-27T09:38:19.913Z,14.44
2023-03-27T09:39:13.027Z,14.57
2023-03-27T09:39:58.804Z,14.33
2023-03-27T09:40:45.635Z,14.52
2023-03-27T09:41:48.882Z,14.54
2023-03-27T09:42:38.061Z,14.88
2023-03-27T09:43:27.483Z,14.77
2023-03-27T09:44:25.605Z,14.22
2023-03-27T09:45:12.688Z,13.91
2023-03-27T09:46:17.501Z,13.51
2023-03-27T09:47:11.862Z,13.28
2023-03-27T09:48:02.803Z,13.76
2023-03-27T09:49:12.616Z,13.15
2023-03-27T09:50:06.794Z,12.61
2023-03-27T09:51:05.814Z,12.15
2023-03-27T09:51:59.507Z,11.80
2023-03-27T09:53:22.937Z,11.19
2023-03-27T09:54:16.826Z,10.80
2023-03-27T09:54:59.129Z,10.54
2023-03-27T09:55:56.731Z,9.99
2023-03-27T09:56:51.614Z,10.87
2023-03-27T09:58:13.321Z,11.39
2023-03-27T09:59:02.064Z,11.81
2023-03-27T10:00:02.173Z,12.20
2023-03-27T10:00:52.569Z,12.36
2023-03-27T10:01:51.857Z,12.71
2023-03-27T10:02:50.940Z,12.87
2023-03-27T10:04:02.642Z,13.29
2023-03-27T10:05:04.259Z,13.25
2023-03-27T10:06:14.143Z,13.26
2023-03-27T10:07:23.945Z,12.75
2023-03-27T10:08:43.692Z,12.48
2023-03-27T10:09:56.168Z,12.24
2023-03-27T10:10:47.466Z,12.01
2023-03-27T10:11:58.109Z,12.25
2023-03-27T10:12:58.280Z,12.27
2023-03-27T10:13:52.094Z,11.96
2023-03-27T10:14:52.826Z,11.59
2023-03-27T10:15:44.031Z,11.37
2023-03-27T10:16:49.062Z,11.10
2023-03-27T10:17:44.045Z,11.65
2023-03-27T10:18:49.194Z,11.55
2023-03-27T10:19:46.459Z,11.23
2023-03-27T10:20:37.445Z,10.95
2023-03-27T10:21:54.219Z,11.44
2023-03-27T10:22:55.949Z,12.43
2023-03-27T10:23:49.539Z,12.81
2023-03-27T10:24:55.591Z,13.01
2023-03-27T10:25:58.092Z,12.85
2023-03-27T10:27:03.387Z,12.48
2023-03-27T10:27:51.233Z,12.16
2023-03-27T10:29:32.226Z,11.28
2023-03-27T10:30:48.108Z,11.19
2023-03-27T10:32:16.877Z,11.42
2023-03-27T10:33:08.134Z,11.18
2023-03-27T10:34:47.205Z,10.96
2023-03-27T10:36:00.945Z,10.64
2023-03-27T10:36:50.557Z,10.52
2023-03-27T10:37:50.179Z,10.22
2023-03-27T10:39:14.909Z,10.03
2023-03-27T10:40:37.654Z,9.82
2023-03-27T10:41:43.173Z,10.50
2023-03-27T10:43:54.950Z,10.83
2023-03-27T10:44:39.620Z,11.61
2023-03-27T10:45:23.070Z,12.07
2023-03-27T10:46:16.997Z,12.00
2023-03-27T10:46:59.382Z,11.81
2023-03-27T10:47:50.306Z,11.49
2023-03-27T10:48:53.361Z,11.40
2023-03-27T10:49:47.938Z,11.31
2023-03-27T10:50:54.158Z,11.22
2023-03-27T10:52:08.464Z,11.35
2023-03-27T10:53:26.419Z,11.80
2023-03-27T10:54:57.340Z,11.83
2023-03-27T10:56:14.009Z,11.90
2023-03-27T10:57:13.851Z,11.63
2023-03-27T10:58:00.215Z,11.30
2023-03-27T10:59:12.033Z,11.24
2023-03-27T11:00:13.648Z,11.09
2023-03-27T11:01:18.352Z,10.93
2023-03-27T11:02:40.677Z,10.65
2023-03-27T11:03:38.586Z,10.46
2023-03-27T11:04:36.832Z,10.62
2023-03-27T11:05:28.979Z,10.46
2023-03-27T11:06:16.838Z,11.13
2023-03-27T11:07:06.871Z,11.53
2023-03-27T11:08:12.240Z,11.95
2023-03-27T11:09:06.469Z,12.15
2023-03-27T11:10:07.868Z,12.46
2023-03-27T11:10:52.040Z,12.62
2023-03-27T11:11:52.134Z,12.69
2023-03-27T11:12:42.806Z,12.67
2023-03-27T11:13:56.195Z,12.72